Aeroporto :
LOGIN :

Iscrizione | Disclaimer

   EN    FR    IT 

 










Sommario :    VFR   VFR Marginale   IFR   IFR Intensivo   IFR Molto Intensivo
Visibilità : 
Base nubi : 
>= 8 km
>= 3000ft
5 / 8 km
1000 / 3000 ft
1500m / 5 km
500 / 1000 ft
800 / 1500m
200 / 500 ft
< 800m
< 200 ft
Simboli :   Temporali  Nebbia  Neve Forte  Precipitazioni Forti  Vento > 20 kt
SIGMETs :   Varie  Temporali  Ghiacco  Turbolenza  Onda orograficha  Ceneri Vulcaniche






- Altitudine del aeroporto : 348 ft
- Codice IATA : TSR


LRTR - Timisoara

ULTIMO METAR :
  • 210730Z 10013KT CAVOK 10/06 Q1025

METARs OBSOLETI :
  • 210700Z 10010KT CAVOK 09/06 Q1025
  • 210630Z 09009KT CAVOK 06/05 Q1025
  • 210600Z 09009KT CAVOK 05/04 Q1025
  • 210530Z 09008KT CAVOK 05/04 Q1024
  • 210500Z 10011KT CAVOK 04/04 Q1024
  • 210430Z 11010KT CAVOK 03/03 Q1024

TAF TAF LRTR
Valido dal 21 a 06 ore il 22 a 06 ore UTC


210500Z 2106/2206 12012KT CAVOK
BECMG 2108/2110 18012KT
BECMG 2122/2200 12006KT



MetMap, La meteo Aeronautica in un colpo d'occhio ! - Copyright ORBIFLY Dicembre 2007 - Disclaimer

ORBIFLY MET'MAP TEAM :

Programmazione e sviluppo : Alexandra Zaïnal
Concezione : Baudouin d'Aumeries
Aiuto per la programmazione : Marc-Olivier Méhu
Supporto tecnico e logistico : Manuel Goepfert
Aiuto per la traduzione : Arnaldo La Scala

Contatto : metmap@orbifly.com




FONTI E CREDITI :

   NOAA